Swatara, Pennsylvania
Current Conditions -  °F | °C
As of 7:56 PM on Tuesday 25 Nov 2014 (Local Time) from KMDT Reporting Station
Scattered Clouds Scattered Clouds  
Wind Chill: 37°   Ceiling: Unl
Heat Index: 37°   Visibility: 10mi
Dew Point: 30°   Wind: 0mph
Humidity: 76%   Direction: NA
Pressure: 30.11"   Gusts: NA
Location:  40.2634°N, 76.626°W
Report Text: KMDT 260056Z 00000KT 10SM SCT250 03/M01 A3011 RMK AO2 SLP200 T00281011
Loading
Personal Weather Stations






























Interactive Weather Map New forecast layout! Learn more

10-Day Weather Forecast

Advertisements
Track Severe Weather on mobile